createdAt,value
2018-05-18T00:01:25.626Z,99.90
2018-05-18T00:03:53.063Z,99.90
2018-05-18T00:06:21.265Z,99.90
2018-05-18T00:08:48.695Z,99.90
2018-05-18T00:11:16.898Z,99.90
2018-05-18T00:13:44.322Z,99.90
2018-05-18T00:16:12.514Z,99.90
2018-05-18T00:18:39.956Z,99.90
2018-05-18T00:21:08.158Z,99.90
2018-05-18T00:23:35.602Z,99.90
2018-05-18T00:26:03.035Z,99.90
2018-05-18T00:28:31.246Z,99.90
2018-05-18T00:30:58.663Z,99.90
2018-05-18T00:33:26.869Z,99.90
2018-05-18T00:35:54.302Z,99.90
2018-05-18T00:38:22.514Z,99.90
2018-05-18T00:40:49.955Z,99.90
2018-05-18T00:43:17.457Z,99.90
2018-05-18T00:45:45.574Z,99.90
2018-05-18T00:48:13.008Z,99.90
2018-05-18T00:50:41.220Z,99.90
2018-05-18T00:53:08.654Z,99.90
2018-05-18T00:55:41.729Z,99.90
2018-05-18T00:58:09.623Z,99.90
2018-05-18T01:00:36.983Z,99.90
2018-05-18T01:03:04.411Z,99.90
2018-05-18T01:05:32.617Z,99.90
2018-05-18T01:08:00.047Z,99.90
2018-05-18T01:10:27.483Z,99.90
2018-05-18T01:12:55.699Z,99.90
2018-05-18T01:15:23.149Z,99.90
2018-05-18T01:17:50.571Z,99.90
2018-05-18T01:20:18.786Z,99.90
2018-05-18T01:22:46.210Z,99.90
2018-05-18T01:25:14.422Z,99.90
2018-05-18T01:27:41.854Z,99.90
2018-05-18T01:30:09.294Z,99.90
2018-05-18T01:32:37.498Z,99.90
2018-05-18T01:35:04.954Z,99.90
2018-05-18T01:37:33.528Z,99.90
2018-05-18T01:40:00.962Z,99.90
2018-05-18T01:42:29.155Z,99.90
2018-05-18T01:44:56.588Z,99.90
2018-05-18T01:47:24.786Z,99.90
2018-05-18T01:49:52.212Z,99.90
2018-05-18T01:52:20.414Z,99.90
2018-05-18T01:54:47.839Z,99.90
2018-05-18T01:57:16.056Z,99.90
2018-05-18T01:59:43.482Z,99.90
2018-05-18T02:02:11.686Z,99.90
2018-05-18T02:04:39.512Z,99.90
2018-05-18T02:07:07.728Z,99.90
2018-05-18T02:09:35.146Z,99.90
2018-05-18T02:12:03.357Z,99.90
2018-05-18T02:14:31.182Z,99.90
2018-05-18T02:16:59.763Z,99.90
2018-05-18T02:19:27.191Z,99.90
2018-05-18T02:21:54.629Z,99.90
2018-05-18T02:24:22.062Z,99.90
2018-05-18T02:26:49.499Z,99.90
2018-05-18T02:29:17.702Z,99.90
2018-05-18T02:31:45.147Z,99.90
2018-05-18T02:34:12.610Z,99.90
2018-05-18T02:36:40.788Z,99.90
2018-05-18T02:39:09.359Z,99.90
2018-05-18T02:41:36.804Z,99.90
2018-05-18T02:44:05.000Z,99.90
2018-05-18T02:46:32.834Z,99.90
2018-05-18T02:49:00.665Z,99.90
2018-05-18T02:51:28.505Z,99.90
2018-05-18T02:53:56.325Z,99.90
2018-05-18T02:56:24.536Z,99.90
2018-05-18T02:58:52.735Z,99.90
2018-05-18T03:01:20.935Z,99.90
2018-05-18T03:03:48.367Z,99.90
2018-05-18T03:06:15.866Z,99.90
2018-05-18T03:08:44.057Z,99.90
2018-05-18T03:11:11.480Z,99.90
2018-05-18T03:13:39.329Z,99.90
2018-05-18T03:16:06.762Z,99.90
2018-05-18T03:18:34.206Z,99.90
2018-05-18T03:21:02.121Z,99.90
2018-05-18T03:23:30.235Z,99.90
2018-05-18T03:25:57.661Z,99.90
2018-05-18T03:28:25.878Z,99.90
2018-05-18T03:30:53.306Z,99.90
2018-05-18T03:33:20.746Z,99.90
2018-05-18T03:35:48.943Z,99.90
2018-05-18T03:38:17.152Z,99.90
2018-05-18T03:40:44.599Z,99.90
2018-05-18T03:43:12.035Z,99.90
2018-05-18T03:45:39.462Z,99.90
2018-05-18T03:48:07.678Z,99.90
2018-05-18T03:50:35.114Z,99.90
2018-05-18T03:53:02.550Z,99.90
2018-05-18T03:55:30.749Z,99.90
2018-05-18T03:57:58.194Z,99.90
2018-05-18T04:00:26.389Z,99.90
2018-05-18T04:03:05.571Z,99.90
2018-05-18T04:05:44.853Z,99.90
2018-05-18T04:08:24.679Z,99.90
2018-05-18T04:10:52.062Z,99.90
2018-05-18T04:13:19.902Z,99.90
2018-05-18T04:15:47.333Z,99.90
2018-05-18T04:18:15.547Z,99.90
2018-05-18T04:20:42.977Z,99.90
2018-05-18T04:23:10.798Z,99.90
2018-05-18T04:25:39.198Z,99.90
2018-05-18T04:28:07.029Z,99.90
2018-05-18T04:30:34.473Z,99.90
2018-05-18T04:33:01.917Z,99.90
2018-05-18T04:35:29.739Z,99.90
2018-05-18T04:37:57.562Z,99.90
2018-05-18T04:40:25.438Z,99.90
2018-05-18T04:42:52.895Z,99.90
2018-05-18T04:45:20.330Z,99.90
2018-05-18T04:47:48.227Z,99.90
2018-05-18T04:50:15.666Z,99.90
2018-05-18T04:52:44.240Z,99.90
2018-05-18T04:55:11.691Z,99.90
2018-05-18T04:57:39.121Z,99.90
2018-05-18T05:00:07.387Z,99.90
2018-05-18T05:02:35.224Z,99.90
2018-05-18T05:05:03.055Z,99.90
2018-05-18T05:07:30.511Z,99.90
2018-05-18T05:09:57.954Z,99.90
2018-05-18T05:12:25.378Z,99.90
2018-05-18T05:14:53.594Z,99.90
2018-05-18T05:17:21.022Z,99.90
2018-05-18T05:19:49.227Z,99.90
2018-05-18T05:22:16.663Z,99.90
2018-05-18T05:24:44.495Z,99.90
2018-05-18T05:27:11.918Z,99.90
2018-05-18T05:29:39.367Z,99.90
2018-05-18T05:32:06.808Z,99.90
2018-05-18T05:34:34.248Z,99.90
2018-05-18T05:37:02.443Z,99.90
2018-05-18T05:39:29.886Z,99.90
2018-05-18T05:41:57.710Z,99.90
2018-05-18T05:44:25.153Z,99.90
2018-05-18T05:46:52.670Z,99.90
2018-05-18T05:49:20.025Z,99.90
2018-05-18T05:51:48.230Z,99.90
2018-05-18T05:54:15.663Z,99.90
2018-05-18T05:56:43.112Z,99.90
2018-05-18T05:59:11.301Z,99.90
2018-05-18T06:01:38.745Z,99.90
2018-05-18T06:04:06.206Z,99.90
2018-05-18T06:06:33.646Z,99.90
2018-05-18T06:09:01.083Z,99.90
2018-05-18T06:11:28.921Z,99.90
2018-05-18T06:13:56.367Z,99.90
2018-05-18T06:16:24.211Z,99.90
2018-05-18T06:18:51.659Z,99.90
2018-05-18T06:21:19.879Z,99.90
2018-05-18T06:23:47.319Z,99.90
2018-05-18T06:26:14.764Z,99.90
2018-05-18T06:28:42.261Z,99.90
2018-05-18T06:31:09.654Z,99.90
2018-05-18T06:33:37.490Z,99.90
2018-05-18T06:36:05.703Z,99.90
2018-05-18T06:38:33.147Z,99.90
2018-05-18T06:41:00.589Z,99.90
2018-05-18T06:43:28.428Z,99.90
2018-05-18T06:45:56.267Z,99.90
2018-05-18T06:48:24.467Z,99.90
2018-05-18T06:50:52.678Z,99.90
2018-05-18T06:53:20.107Z,99.90
2018-05-18T06:55:47.943Z,99.90
2018-05-18T06:58:15.769Z,99.90
2018-05-18T07:00:44.356Z,99.90
2018-05-18T07:03:11.811Z,99.90
2018-05-18T07:05:39.241Z,99.90
2018-05-18T07:08:07.468Z,99.90
2018-05-18T07:10:35.007Z,99.90
2018-05-18T07:13:02.397Z,99.90
2018-05-18T07:15:29.826Z,99.90
2018-05-18T07:17:57.671Z,99.90
2018-05-18T07:20:25.109Z,99.90
2018-05-18T07:22:52.949Z,99.90
2018-05-18T07:25:20.387Z,99.90
2018-05-18T07:27:47.827Z,99.90
2018-05-18T07:30:15.270Z,99.90
2018-05-18T07:32:42.711Z,99.90
2018-05-18T07:35:10.148Z,99.90
2018-05-18T07:37:38.360Z,99.90
2018-05-18T07:40:05.805Z,99.90
2018-05-18T07:42:33.259Z,99.90
2018-05-18T07:45:00.679Z,99.90
2018-05-18T07:47:28.901Z,99.90
2018-05-18T07:49:56.351Z,99.90
2018-05-18T07:52:23.799Z,99.90
2018-05-18T07:54:51.235Z,99.90
2018-05-18T07:57:19.446Z,99.90
2018-05-18T07:59:46.890Z,99.90
2018-05-18T08:02:14.354Z,99.90
2018-05-18T08:04:41.789Z,99.90
2018-05-18T08:07:09.237Z,99.90
2018-05-18T08:09:36.678Z,99.90
2018-05-18T08:12:04.878Z,99.90
2018-05-18T08:14:32.315Z,99.90
2018-05-18T08:17:00.532Z,99.90
2018-05-18T08:19:27.973Z,99.90
2018-05-18T08:21:55.412Z,99.90
2018-05-18T08:24:22.847Z,99.90
2018-05-18T08:27:03.067Z,99.90
2018-05-18T08:29:35.342Z,99.90
2018-05-18T08:32:03.200Z,99.90
2018-05-18T08:34:30.635Z,99.90
2018-05-18T08:36:58.075Z,99.90
2018-05-18T08:39:25.519Z,99.90
2018-05-18T08:41:53.731Z,99.90
2018-05-18T08:44:21.300Z,99.90
2018-05-18T08:46:49.402Z,99.90
2018-05-18T08:49:16.919Z,99.90
2018-05-18T08:51:45.118Z,99.90
2018-05-18T08:54:12.576Z,99.90
2018-05-18T08:56:40.018Z,99.90
2018-05-18T08:59:07.464Z,99.90
2018-05-18T09:01:34.906Z,99.90
2018-05-18T09:04:02.360Z,99.90
2018-05-18T09:06:29.799Z,99.90
2018-05-18T09:08:57.303Z,99.90
2018-05-18T09:11:25.446Z,99.90
2018-05-18T09:13:52.903Z,99.90
2018-05-18T09:16:21.274Z,99.90
2018-05-18T09:18:49.123Z,99.90
2018-05-18T09:21:16.562Z,99.90
2018-05-18T09:23:44.779Z,99.90
2018-05-18T09:26:12.217Z,99.90
2018-05-18T09:28:39.658Z,99.90
2018-05-18T09:31:07.871Z,99.90
2018-05-18T09:33:35.328Z,99.90
2018-05-18T09:36:02.763Z,99.90
2018-05-18T09:38:30.211Z,99.90
2018-05-18T09:40:57.658Z,99.90
2018-05-18T09:43:25.872Z,99.90
2018-05-18T09:45:53.332Z,99.90
2018-05-18T09:48:21.170Z,99.80
2018-05-18T09:50:49.009Z,99.90
2018-05-18T09:53:17.230Z,99.90
2018-05-18T09:55:45.064Z,97.60
2018-05-18T09:58:13.267Z,99.90
2018-05-18T10:00:41.555Z,99.90
2018-05-18T10:03:08.924Z,99.90
2018-05-18T10:05:36.370Z,99.90
2018-05-18T10:08:03.816Z,97.80
2018-05-18T10:10:31.274Z,99.10
2018-05-18T10:12:58.714Z,99.90
2018-05-18T10:15:26.163Z,99.90
2018-05-18T10:17:53.606Z,99.90
2018-05-18T10:20:21.443Z,98.00
2018-05-18T10:22:48.895Z,99.90
2018-05-18T10:25:22.965Z,99.90
2018-05-18T10:27:50.398Z,99.70
2018-05-18T10:30:17.847Z,96.60
2018-05-18T10:32:45.286Z,99.90
2018-05-18T10:35:13.502Z,92.40
2018-05-18T10:37:40.963Z,99.90
2018-05-18T10:40:08.417Z,96.40
2018-05-18T10:42:35.856Z,99.90
2018-05-18T10:45:03.298Z,99.10
2018-05-18T10:47:31.514Z,94.00
2018-05-18T10:49:58.967Z,99.90
2018-05-18T10:52:26.414Z,92.40
2018-05-18T10:54:53.852Z,93.70
2018-05-18T10:57:21.288Z,97.90
2018-05-18T10:59:49.507Z,93.80
2018-05-18T11:02:16.950Z,94.80
2018-05-18T11:04:44.791Z,94.30
2018-05-18T11:07:12.996Z,93.10
2018-05-18T11:09:40.463Z,93.10
2018-05-18T11:12:07.901Z,93.10
2018-05-18T11:14:35.732Z,89.10
2018-05-18T11:17:03.946Z,92.90
2018-05-18T11:19:31.403Z,91.50
2018-05-18T11:21:58.846Z,94.80
2018-05-18T11:24:27.052Z,86.80
2018-05-18T11:26:54.500Z,90.60
2018-05-18T11:29:21.946Z,90.40
2018-05-18T11:31:50.164Z,88.70
2018-05-18T11:34:17.599Z,91.80
2018-05-18T11:36:45.052Z,94.80
2018-05-18T11:39:12.614Z,97.20
2018-05-18T11:41:39.951Z,91.70
2018-05-18T11:44:08.072Z,92.80
2018-05-18T11:46:36.297Z,90.50
2018-05-18T11:49:03.727Z,92.50
2018-05-18T11:51:31.938Z,90.30
2018-05-18T11:53:59.777Z,92.40
2018-05-18T11:56:27.214Z,92.00
2018-05-18T11:58:54.657Z,96.30
2018-05-18T12:01:23.231Z,93.50
2018-05-18T12:03:50.666Z,91.10
2018-05-18T12:06:18.875Z,90.60
2018-05-18T12:08:46.702Z,86.60
2018-05-18T12:11:14.145Z,92.90
2018-05-18T12:13:41.978Z,93.40
2018-05-18T12:16:09.815Z,86.50
2018-05-18T12:18:37.642Z,86.20
2018-05-18T12:21:05.085Z,93.00
2018-05-18T12:23:32.532Z,94.00
2018-05-18T12:25:59.969Z,91.50
2018-05-18T12:28:27.799Z,91.20
2018-05-18T12:30:55.237Z,94.20
2018-05-18T12:33:22.693Z,92.80
2018-05-18T12:35:50.131Z,85.30
2018-05-18T12:38:17.676Z,90.40
2018-05-18T12:40:45.027Z,93.00
2018-05-18T12:43:12.471Z,91.20
2018-05-18T12:45:40.669Z,81.00
2018-05-18T12:48:08.118Z,90.30
2018-05-18T12:50:35.555Z,90.30
2018-05-18T12:53:03.763Z,84.00
2018-05-18T12:55:31.208Z,90.70
2018-05-18T12:57:58.650Z,91.80
2018-05-18T13:00:26.087Z,91.70
2018-05-18T13:02:54.303Z,90.30
2018-05-18T13:05:21.739Z,91.00
2018-05-18T13:07:49.178Z,87.90
2018-05-18T13:10:17.402Z,86.10
2018-05-18T13:12:45.239Z,88.50
2018-05-18T13:15:12.732Z,89.70
2018-05-18T13:17:40.178Z,83.10
2018-05-18T13:20:07.611Z,90.00
2018-05-18T13:22:35.060Z,92.80
2018-05-18T13:25:02.921Z,89.50
2018-05-18T13:27:31.119Z,87.00
2018-05-18T13:29:58.571Z,95.20
2018-05-18T13:32:26.106Z,91.30
2018-05-18T13:34:53.476Z,93.20
2018-05-18T13:37:20.919Z,93.60
2018-05-18T13:39:48.504Z,92.30
2018-05-18T13:42:15.938Z,84.80
2018-05-18T13:44:43.435Z,93.00
2018-05-18T13:47:11.229Z,89.60
2018-05-18T13:49:38.663Z,90.00
2018-05-18T13:52:06.099Z,92.80
2018-05-18T13:54:33.543Z,91.00
2018-05-18T13:57:02.291Z,84.60
2018-05-18T13:59:30.950Z,84.90
2018-05-18T14:04:28.687Z,91.20
2018-05-18T14:06:56.882Z,83.40
2018-05-18T14:09:24.327Z,85.40
2018-05-18T14:11:51.763Z,92.10
2018-05-18T14:14:19.202Z,85.40
2018-05-18T14:16:47.402Z,89.40
2018-05-18T14:19:15.611Z,85.50
2018-05-18T14:21:43.052Z,86.30
2018-05-18T14:24:10.495Z,90.10
2018-05-18T14:26:38.697Z,80.70
2018-05-18T14:29:06.147Z,81.70
2018-05-18T14:31:33.640Z,81.90
2018-05-18T14:34:01.123Z,85.60
2018-05-18T14:36:28.967Z,81.30
2018-05-18T14:38:57.175Z,83.00
2018-05-18T14:41:25.471Z,90.60
2018-05-18T14:43:53.401Z,84.70
2018-05-18T14:46:20.746Z,91.20
2018-05-18T14:48:48.227Z,88.00
2018-05-18T14:51:16.069Z,88.00
2018-05-18T14:53:44.256Z,85.90
2018-05-18T14:56:12.829Z,88.20
2018-05-18T14:58:40.367Z,90.30
2018-05-18T15:01:08.483Z,82.10
2018-05-18T15:03:37.052Z,82.00
2018-05-18T15:06:04.884Z,84.90
2018-05-18T15:08:33.107Z,82.60
2018-05-18T15:11:00.590Z,87.80
2018-05-18T15:13:28.398Z,87.90
2018-05-18T15:15:56.594Z,90.90
2018-05-18T15:18:24.028Z,94.80
2018-05-18T15:20:51.467Z,94.70
2018-05-18T15:23:19.674Z,86.30
2018-05-18T15:25:47.141Z,86.50
2018-05-18T15:28:14.592Z,85.30
2018-05-18T15:30:43.162Z,84.70
2018-05-18T15:33:10.592Z,91.00
2018-05-18T15:35:38.798Z,84.70
2018-05-18T15:38:06.999Z,83.20
2018-05-18T15:40:34.436Z,87.80
2018-05-18T15:43:01.867Z,87.70
2018-05-18T15:45:29.309Z,89.20
2018-05-18T15:47:57.140Z,90.70
2018-05-18T15:50:24.566Z,92.50
2018-05-18T15:52:52.003Z,92.90
2018-05-18T15:55:19.439Z,90.60
2018-05-18T15:57:47.647Z,90.40
2018-05-18T16:00:15.078Z,91.10
2018-05-18T16:02:43.334Z,86.70
2018-05-18T16:05:10.759Z,92.00
2018-05-18T16:07:38.203Z,92.60
2018-05-18T16:10:05.638Z,87.70
2018-05-18T16:12:33.085Z,82.60
2018-05-18T16:15:00.911Z,83.50
2018-05-18T16:17:28.762Z,83.40
2018-05-18T16:19:56.196Z,91.20
2018-05-18T16:22:23.651Z,89.30
2018-05-18T16:24:51.090Z,87.30
2018-05-18T16:27:18.938Z,81.60
2018-05-18T16:29:47.162Z,79.50
2018-05-18T16:32:14.620Z,82.40
2018-05-18T16:34:42.052Z,90.90
2018-05-18T16:37:09.491Z,88.60
2018-05-18T16:39:36.926Z,92.40
2018-05-18T16:42:05.148Z,86.80
2018-05-18T16:44:32.575Z,91.70
2018-05-18T16:47:00.426Z,91.10
2018-05-18T16:49:28.640Z,92.20
2018-05-18T16:51:56.470Z,92.20
2018-05-18T16:54:24.663Z,92.40
2018-05-18T16:56:52.511Z,91.10
2018-05-18T16:59:20.704Z,92.10
2018-05-18T17:01:48.144Z,95.40
2018-05-18T17:04:15.982Z,92.00
2018-05-18T17:06:43.433Z,97.50
2018-05-18T17:09:10.883Z,95.00
2018-05-18T17:11:38.331Z,95.80
2018-05-18T17:14:07.215Z,96.70
2018-05-18T17:16:35.053Z,96.90
2018-05-18T17:19:02.488Z,95.60
2018-05-18T17:21:30.327Z,95.30
2018-05-18T17:23:57.776Z,95.10
2018-05-18T17:26:25.211Z,99.60
2018-05-18T17:28:53.061Z,95.90
2018-05-18T17:31:20.890Z,95.80
2018-05-18T17:33:49.103Z,96.50
2018-05-18T17:36:16.543Z,97.20
2018-05-18T17:38:43.980Z,99.90
2018-05-18T17:41:12.183Z,98.80
2018-05-18T17:43:39.621Z,98.70
2018-05-18T17:46:07.053Z,99.60
2018-05-18T17:48:34.882Z,99.90
2018-05-18T17:51:02.315Z,99.90
2018-05-18T17:53:29.758Z,99.90
2018-05-18T17:55:57.191Z,99.90
2018-05-18T17:58:25.413Z,99.90
2018-05-18T18:00:53.252Z,99.90
2018-05-18T18:03:20.703Z,99.90
2018-05-18T18:05:48.140Z,99.90
2018-05-18T18:08:15.980Z,99.90
2018-05-18T18:10:43.419Z,99.90
2018-05-18T18:13:10.871Z,99.90
2018-05-18T18:15:38.315Z,99.90
2018-05-18T18:18:06.151Z,99.90
2018-05-18T18:20:34.405Z,99.90
2018-05-18T18:23:02.249Z,99.90
2018-05-18T18:25:30.455Z,99.90
2018-05-18T18:27:58.672Z,99.90
2018-05-18T18:30:26.105Z,99.90
2018-05-18T18:32:53.555Z,99.90
2018-05-18T18:35:21.784Z,99.90
2018-05-18T18:37:49.627Z,99.90
2018-05-18T18:40:18.228Z,99.90
2018-05-18T18:42:45.656Z,99.90
2018-05-18T18:45:13.110Z,99.90
2018-05-18T18:47:40.549Z,99.90
2018-05-18T18:50:07.994Z,99.90
2018-05-18T18:52:36.200Z,99.90
2018-05-18T18:55:04.037Z,99.90
2018-05-18T18:57:32.530Z,99.90
2018-05-18T18:59:59.964Z,99.90
2018-05-18T19:02:28.255Z,99.90
2018-05-18T19:04:56.459Z,99.90
2018-05-18T19:07:23.943Z,99.90
2018-05-18T19:09:52.252Z,99.90
2018-05-18T19:12:20.461Z,99.90
2018-05-18T19:14:47.906Z,99.90
2018-05-18T19:17:16.600Z,99.90
2018-05-18T19:19:44.279Z,99.90
2018-05-18T19:22:13.495Z,99.90
2018-05-18T19:24:41.735Z,99.90
2018-05-18T19:27:09.663Z,99.90
2018-05-18T19:29:37.554Z,99.90
2018-05-18T19:32:04.946Z,99.90
2018-05-18T19:34:32.382Z,99.90
2018-05-18T19:36:59.862Z,99.90
2018-05-18T19:39:27.700Z,99.90
2018-05-18T19:41:56.279Z,99.90
2018-05-18T19:44:23.807Z,99.90
2018-05-18T19:46:51.267Z,99.90
2018-05-18T19:49:19.471Z,99.90
2018-05-18T19:51:46.928Z,99.90
2018-05-18T19:54:14.402Z,99.90
2018-05-18T19:56:41.838Z,99.90
2018-05-18T19:59:09.277Z,99.90
2018-05-18T20:01:36.925Z,99.90
2018-05-18T20:04:05.143Z,99.90
2018-05-18T20:06:32.650Z,99.90
2018-05-18T20:09:00.856Z,99.90
2018-05-18T20:11:28.856Z,99.90
2018-05-18T20:13:56.294Z,99.90
2018-05-18T20:16:23.746Z,99.90
2018-05-18T20:18:51.186Z,99.90
2018-05-18T20:21:19.036Z,99.90
2018-05-18T20:23:46.860Z,99.90
2018-05-18T20:26:14.296Z,99.90
2018-05-18T20:28:41.741Z,99.90
2018-05-18T20:31:09.575Z,99.90
2018-05-18T20:33:37.777Z,99.90
2018-05-18T20:36:05.210Z,99.90
2018-05-18T20:38:32.646Z,99.90
2018-05-18T20:41:00.082Z,99.90
2018-05-18T20:43:28.659Z,99.90
2018-05-18T20:45:56.108Z,99.90
2018-05-18T20:48:23.551Z,99.90
2018-05-18T20:50:50.997Z,99.90
2018-05-18T20:53:19.191Z,99.90
2018-05-18T20:55:46.643Z,99.90
2018-05-18T20:58:14.080Z,99.90
2018-05-18T21:00:41.519Z,99.90
2018-05-18T21:03:08.965Z,99.90
2018-05-18T21:05:37.184Z,99.90
2018-05-18T21:08:04.626Z,99.90
2018-05-18T21:10:32.136Z,99.90
2018-05-18T21:12:59.898Z,99.90
2018-05-18T21:15:27.334Z,99.90
2018-05-18T21:17:54.773Z,99.90
2018-05-18T21:20:22.214Z,99.90
2018-05-18T21:22:50.419Z,99.90
2018-05-18T21:25:17.855Z,99.90
2018-05-18T21:27:45.303Z,99.90
2018-05-18T21:30:13.884Z,99.90
2018-05-18T21:32:41.334Z,99.90
2018-05-18T21:35:08.763Z,99.90
2018-05-18T21:37:36.971Z,99.90
2018-05-18T21:40:04.413Z,99.90
2018-05-18T21:42:31.852Z,99.90
2018-05-18T21:45:00.062Z,99.90
2018-05-18T21:47:27.511Z,99.90
2018-05-18T21:49:56.090Z,99.90
2018-05-18T21:52:23.536Z,99.90
2018-05-18T21:54:50.971Z,99.90
2018-05-18T21:57:19.189Z,99.90
2018-05-18T21:59:46.630Z,99.90
2018-05-18T22:02:14.059Z,99.90
2018-05-18T22:04:42.276Z,99.90
2018-05-18T22:07:09.731Z,99.90
2018-05-18T22:09:37.153Z,99.90
2018-05-18T22:12:04.615Z,99.90
2018-05-18T22:14:32.061Z,99.90
2018-05-18T22:17:00.723Z,99.90
2018-05-18T22:19:28.164Z,99.90
2018-05-18T22:21:55.605Z,99.90
2018-05-18T22:24:23.044Z,99.90
2018-05-18T22:26:50.508Z,99.90
2018-05-18T22:29:17.931Z,99.90
2018-05-18T22:31:45.359Z,99.90
2018-05-18T22:34:12.804Z,99.90
2018-05-18T22:36:40.635Z,99.90
2018-05-18T22:39:08.075Z,99.90
2018-05-18T22:41:35.516Z,99.90
2018-05-18T22:44:02.963Z,99.90
2018-05-18T22:46:31.167Z,99.90
2018-05-18T22:48:58.603Z,99.90
2018-05-18T22:51:26.864Z,99.90
2018-05-18T22:53:55.080Z,99.90
2018-05-18T22:56:22.518Z,99.90
2018-05-18T22:58:49.967Z,99.90
2018-05-18T23:01:17.407Z,99.90
2018-05-18T23:03:44.838Z,99.90
2018-05-18T23:06:12.273Z,99.90
2018-05-18T23:08:39.732Z,99.90
2018-05-18T23:11:07.172Z,99.90
2018-05-18T23:13:34.611Z,99.90
2018-05-18T23:16:02.047Z,99.90
2018-05-18T23:18:30.255Z,99.90
2018-05-18T23:20:57.701Z,99.90
2018-05-18T23:23:25.142Z,99.90
2018-05-18T23:25:52.653Z,99.90
2018-05-18T23:28:20.017Z,99.90
2018-05-18T23:30:47.453Z,99.90
2018-05-18T23:33:14.899Z,99.90
2018-05-18T23:35:42.345Z,99.90
2018-05-18T23:38:09.788Z,99.90
2018-05-18T23:40:37.220Z,99.90
2018-05-18T23:43:05.422Z,99.90
2018-05-18T23:45:32.843Z,99.90
2018-05-18T23:48:00.307Z,99.90
2018-05-18T23:50:28.522Z,99.90
2018-05-18T23:52:55.950Z,99.90
2018-05-18T23:55:23.387Z,99.90
2018-05-18T23:57:51.580Z,99.90
